White Bear Lake, Minnesota
Current Conditions -  °F | °C
As of 8:31 AM on Sunday 21 Dec 2014 (Local Time) from K21D Reporting Station
Haze Haze  
Wind Chill: 23°   Ceiling: 300
Heat Index: 32°   Visibility: 1mi
Dew Point: 32°   Wind: 12mph
Humidity: 100%   Direction: 150°SSE
Pressure: 29.9"   Gusts: 17mph
Location:  45.08°N, 93.01°W
Report Text: K21D 211431Z AUTO 15010G15KT 1SM BR OVC003 00/00 A2990 RMK AO2
Loading
Personal Weather Stations






























Interactive Weather Map New forecast layout! Learn more

10-Day Weather Forecast

Advertisements
Track Severe Weather on mobile